sensor_id;sensor_type;location;lat;lon;timestamp;P1;durP1;ratioP1;P2;durP2;ratioP2
64186;SDS011;50491;39.484;-8.540;2022-09-09T00:00:49;2.50;;;1.13;;
64186;SDS011;50491;39.484;-8.540;2022-09-09T00:03:14;4.20;;;0.65;;
64186;SDS011;50491;39.484;-8.540;2022-09-09T00:05:23;3.85;;;0.93;;
64186;SDS011;50491;39.484;-8.540;2022-09-09T00:07:48;2.10;;;0.90;;
64186;SDS011;50491;39.484;-8.540;2022-09-09T00:15:03;2.08;;;1.08;;
64186;SDS011;50491;39.484;-8.540;2022-09-09T00:20:14;1.08;;;0.77;;
64186;SDS011;50491;39.484;-8.540;2022-09-09T00:23:06;1.05;;;0.95;;
64186;SDS011;50491;39.484;-8.540;2022-09-09T00:25:54;4.80;;;1.02;;
64186;SDS011;50491;39.484;-8.540;2022-09-09T00:28:28;1.10;;;1.00;;
64186;SDS011;50491;39.484;-8.540;2022-09-09T00:37:53;1.50;;;0.82;;
64186;SDS011;50491;39.484;-8.540;2022-09-09T00:48:06;3.80;;;0.95;;
64186;SDS011;50491;39.484;-8.540;2022-09-09T00:55:39;2.60;;;1.20;;
64186;SDS011;50491;39.484;-8.540;2022-09-09T00:58:10;2.25;;;0.85;;
64186;SDS011;50491;39.484;-8.540;2022-09-09T01:00:17;1.17;;;0.80;;
64186;SDS011;50491;39.484;-8.540;2022-09-09T01:02:21;0.77;;;0.70;;
64186;SDS011;50491;39.484;-8.540;2022-09-09T01:04:33;2.50;;;0.75;;
64186;SDS011;50491;39.484;-8.540;2022-09-09T01:07:08;3.00;;;0.90;;
64186;SDS011;50491;39.484;-8.540;2022-09-09T01:09:54;5.57;;;1.30;;
64186;SDS011;50491;39.484;-8.540;2022-09-09T01:12:46;4.07;;;1.15;;
64186;SDS011;50491;39.484;-8.540;2022-09-09T01:15:26;5.25;;;1.08;;
64186;SDS011;50491;39.484;-8.540;2022-09-09T01:35:49;1.67;;;0.60;;
64186;SDS011;50491;39.484;-8.540;2022-09-09T01:43:32;0.80;;;0.80;;
64186;SDS011;50491;39.484;-8.540;2022-09-09T01:45:34;2.67;;;1.20;;
64186;SDS011;50491;39.484;-8.540;2022-09-09T01:47:53;1.10;;;0.70;;
64186;SDS011;50491;39.484;-8.540;2022-09-09T01:50:15;1.60;;;1.15;;
64186;SDS011;50491;39.484;-8.540;2022-09-09T01:52:16;0.82;;;0.80;;
64186;SDS011;50491;39.484;-8.540;2022-09-09T01:54:35;2.65;;;0.90;;
64186;SDS011;50491;39.484;-8.540;2022-09-09T01:56:44;3.90;;;0.90;;
64186;SDS011;50491;39.484;-8.540;2022-09-09T02:01:16;3.63;;;0.88;;
64186;SDS011;50491;39.484;-8.540;2022-09-09T02:03:44;2.67;;;1.10;;
64186;SDS011;50491;39.484;-8.540;2022-09-09T02:06:24;2.30;;;0.70;;
64186;SDS011;50491;39.484;-8.540;2022-09-09T02:11:31;7.30;;;1.05;;
64186;SDS011;50491;39.484;-8.540;2022-09-09T02:13:51;3.17;;;0.90;;
64186;SDS011;50491;39.484;-8.540;2022-09-09T02:16:08;1.30;;;0.65;;
64186;SDS011;50491;39.484;-8.540;2022-09-09T02:20:45;1.83;;;1.08;;
64186;SDS011;50491;39.484;-8.540;2022-09-09T02:22:47;5.82;;;1.13;;
64186;SDS011;50491;39.484;-8.540;2022-09-09T02:25:08;6.00;;;1.20;;
64186;SDS011;50491;39.484;-8.540;2022-09-09T02:27:10;10.18;;;1.63;;
64186;SDS011;50491;39.484;-8.540;2022-09-09T02:29:14;1.95;;;1.20;;
64186;SDS011;50491;39.484;-8.540;2022-09-09T02:34:47;4.15;;;1.48;;
64186;SDS011;50491;39.484;-8.540;2022-09-09T02:37:20;3.03;;;1.08;;
64186;SDS011;50491;39.484;-8.540;2022-09-09T02:39:41;10.88;;;1.40;;
64186;SDS011;50491;39.484;-8.540;2022-09-09T02:44:19;4.82;;;1.90;;
64186;SDS011;50491;39.484;-8.540;2022-09-09T02:52:00;1.13;;;1.02;;
64186;SDS011;50491;39.484;-8.540;2022-09-09T02:57:02;3.13;;;1.30;;
64186;SDS011;50491;39.484;-8.540;2022-09-09T02:59:57;4.68;;;1.75;;
64186;SDS011;50491;39.484;-8.540;2022-09-09T03:01:58;2.35;;;1.73;;
64186;SDS011;50491;39.484;-8.540;2022-09-09T03:06:18;4.43;;;2.22;;
64186;SDS011;50491;39.484;-8.540;2022-09-09T03:08:23;2.47;;;1.30;;
64186;SDS011;50491;39.484;-8.540;2022-09-09T03:10:24;2.25;;;1.77;;
64186;SDS011;50491;39.484;-8.540;2022-09-09T03:12:25;3.78;;;1.90;;
64186;SDS011;50491;39.484;-8.540;2022-09-09T03:14:26;5.57;;;2.08;;
64186;SDS011;50491;39.484;-8.540;2022-09-09T03:16:27;4.53;;;2.17;;
64186;SDS011;50491;39.484;-8.540;2022-09-09T03:18:28;9.13;;;1.58;;
64186;SDS011;50491;39.484;-8.540;2022-09-09T03:20:48;1.90;;;1.52;;
64186;SDS011;50491;39.484;-8.540;2022-09-09T03:23:09;2.70;;;1.70;;
64186;SDS011;50491;39.484;-8.540;2022-09-09T03:31:22;2.42;;;1.42;;
64186;SDS011;50491;39.484;-8.540;2022-09-09T03:36:21;4.25;;;1.63;;
64186;SDS011;50491;39.484;-8.540;2022-09-09T03:38:24;5.53;;;2.60;;
64186;SDS011;50491;39.484;-8.540;2022-09-09T03:43:03;4.82;;;1.90;;
64186;SDS011;50491;39.484;-8.540;2022-09-09T03:45:22;7.22;;;2.33;;
64186;SDS011;50491;39.484;-8.540;2022-09-09T03:47:41;3.00;;;1.80;;
64186;SDS011;50491;39.484;-8.540;2022-09-09T03:49:42;5.38;;;2.42;;
64186;SDS011;50491;39.484;-8.540;2022-09-09T03:51:42;2.75;;;1.65;;
64186;SDS011;50491;39.484;-8.540;2022-09-09T03:53:45;11.85;;;2.83;;
64186;SDS011;50491;39.484;-8.540;2022-09-09T03:55:47;4.70;;;2.40;;
64186;SDS011;50491;39.484;-8.540;2022-09-09T03:57:50;3.42;;;2.17;;
64186;SDS011;50491;39.484;-8.540;2022-09-09T03:59:52;9.40;;;2.47;;
64186;SDS011;50491;39.484;-8.540;2022-09-09T04:01:53;3.25;;;1.85;;
64186;SDS011;50491;39.484;-8.540;2022-09-09T04:04:13;4.20;;;2.53;;
64186;SDS011;50491;39.484;-8.540;2022-09-09T04:06:14;8.05;;;2.35;;
64186;SDS011;50491;39.484;-8.540;2022-09-09T04:08:33;2.35;;;1.60;;
64186;SDS011;50491;39.484;-8.540;2022-09-09T04:10:54;3.78;;;1.70;;
64186;SDS011;50491;39.484;-8.540;2022-09-09T04:13:22;7.85;;;2.55;;
64186;SDS011;50491;39.484;-8.540;2022-09-09T04:15:23;7.22;;;2.63;;
64186;SDS011;50491;39.484;-8.540;2022-09-09T04:17:24;3.28;;;2.08;;
64186;SDS011;50491;39.484;-8.540;2022-09-09T04:21:45;3.90;;;1.75;;
64186;SDS011;50491;39.484;-8.540;2022-09-09T04:24:04;4.70;;;2.03;;
64186;SDS011;50491;39.484;-8.540;2022-09-09T04:28:44;2.67;;;1.27;;
64186;SDS011;50491;39.484;-8.540;2022-09-09T04:36:31;4.15;;;1.75;;
64186;SDS011;50491;39.484;-8.540;2022-09-09T04:38:35;4.28;;;1.98;;
64186;SDS011;50491;39.484;-8.540;2022-09-09T04:52:37;3.40;;;2.10;;
64186;SDS011;50491;39.484;-8.540;2022-09-09T04:55:28;7.15;;;2.47;;
64186;SDS011;50491;39.484;-8.540;2022-09-09T04:57:30;2.63;;;1.42;;
64186;SDS011;50491;39.484;-8.540;2022-09-09T05:09:37;4.68;;;2.58;;
64186;SDS011;50491;39.484;-8.540;2022-09-09T05:16:27;4.65;;;2.20;;
64186;SDS011;50491;39.484;-8.540;2022-09-09T05:18:28;12.10;;;2.63;;
64186;SDS011;50491;39.484;-8.540;2022-09-09T05:21:20;6.70;;;2.40;;
64186;SDS011;50491;39.484;-8.540;2022-09-09T05:23:47;4.85;;;2.00;;
64186;SDS011;50491;39.484;-8.540;2022-09-09T05:26:08;6.28;;;2.15;;
64186;SDS011;50491;39.484;-8.540;2022-09-09T05:28:33;4.93;;;1.90;;
64186;SDS011;50491;39.484;-8.540;2022-09-09T05:30:34;4.30;;;1.20;;
64186;SDS011;50491;39.484;-8.540;2022-09-09T05:32:55;5.85;;;2.13;;
64186;SDS011;50491;39.484;-8.540;2022-09-09T05:34:56;4.75;;;2.03;;
64186;SDS011;50491;39.484;-8.540;2022-09-09T05:37:15;5.53;;;2.17;;
64186;SDS011;50491;39.484;-8.540;2022-09-09T05:44:15;5.00;;;2.08;;
64186;SDS011;50491;39.484;-8.540;2022-09-09T05:46:18;4.43;;;1.20;;
64186;SDS011;50491;39.484;-8.540;2022-09-09T05:48:30;5.60;;;1.13;;
64186;SDS011;50491;39.484;-8.540;2022-09-09T05:50:55;3.17;;;1.13;;
64186;SDS011;50491;39.484;-8.540;2022-09-09T05:53:18;0.80;;;0.80;;
64186;SDS011;50491;39.484;-8.540;2022-09-09T05:55:27;4.43;;;1.00;;
64186;SDS011;50491;39.484;-8.540;2022-09-09T05:57:28;2.08;;;1.40;;
64186;SDS011;50491;39.484;-8.540;2022-09-09T05:59:29;1.13;;;0.90;;
64186;SDS011;50491;39.484;-8.540;2022-09-09T06:07:17;2.63;;;0.88;;
64186;SDS011;50491;39.484;-8.540;2022-09-09T06:09:18;1.05;;;0.60;;
64186;SDS011;50491;39.484;-8.540;2022-09-09T06:11:22;1.73;;;0.90;;
64186;SDS011;50491;39.484;-8.540;2022-09-09T06:16:32;0.95;;;0.80;;
64186;SDS011;50491;39.484;-8.540;2022-09-09T06:18:34;2.58;;;1.13;;
64186;SDS011;50491;39.484;-8.540;2022-09-09T06:20:34;1.67;;;0.65;;
64186;SDS011;50491;39.484;-8.540;2022-09-09T06:22:53;6.38;;;0.80;;
64186;SDS011;50491;39.484;-8.540;2022-09-09T06:25:12;1.90;;;0.73;;
64186;SDS011;50491;39.484;-8.540;2022-09-09T06:27:13;1.60;;;0.82;;
64186;SDS011;50491;39.484;-8.540;2022-09-09T06:36:35;1.90;;;0.90;;
64186;SDS011;50491;39.484;-8.540;2022-09-09T06:41:55;3.50;;;1.00;;
64186;SDS011;50491;39.484;-8.540;2022-09-09T06:44:18;1.90;;;0.80;;
64186;SDS011;50491;39.484;-8.540;2022-09-09T06:46:21;1.60;;;0.60;;
64186;SDS011;50491;39.484;-8.540;2022-09-09T06:48:43;0.57;;;0.57;;
64186;SDS011;50491;39.484;-8.540;2022-09-09T06:50:46;0.77;;;0.60;;
64186;SDS011;50491;39.484;-8.540;2022-09-09T06:53:05;0.82;;;0.50;;
64186;SDS011;50491;39.484;-8.540;2022-09-09T06:55:24;2.38;;;1.20;;
64186;SDS011;50491;39.484;-8.540;2022-09-09T06:57:43;3.10;;;1.00;;
64186;SDS011;50491;39.484;-8.540;2022-09-09T06:59:49;2.30;;;1.10;;
64186;SDS011;50491;39.484;-8.540;2022-09-09T07:02:09;1.95;;;0.82;;
64186;SDS011;50491;39.484;-8.540;2022-09-09T07:04:09;2.50;;;1.23;;
64186;SDS011;50491;39.484;-8.540;2022-09-09T07:06:30;1.90;;;1.00;;
64186;SDS011;50491;39.484;-8.540;2022-09-09T07:08:33;1.05;;;1.02;;
64186;SDS011;50491;39.484;-8.540;2022-09-09T07:10:35;3.22;;;1.13;;
64186;SDS011;50491;39.484;-8.540;2022-09-09T07:12:35;1.45;;;1.00;;
64186;SDS011;50491;39.484;-8.540;2022-09-09T07:14:52;2.55;;;1.65;;
64186;SDS011;50491;39.484;-8.540;2022-09-09T07:16:52;3.70;;;1.23;;
64186;SDS011;50491;39.484;-8.540;2022-09-09T07:18:53;3.47;;;1.23;;
64186;SDS011;50491;39.484;-8.540;2022-09-09T07:23:53;2.13;;;0.82;;
64186;SDS011;50491;39.484;-8.540;2022-09-09T07:25:56;3.70;;;0.90;;
64186;SDS011;50491;39.484;-8.540;2022-09-09T07:27:58;2.28;;;0.95;;
64186;SDS011;50491;39.484;-8.540;2022-09-09T07:29:59;2.25;;;1.25;;
64186;SDS011;50491;39.484;-8.540;2022-09-09T07:32:00;3.97;;;1.35;;
64186;SDS011;50491;39.484;-8.540;2022-09-09T07:41:49;6.03;;;1.33;;
64186;SDS011;50491;39.484;-8.540;2022-09-09T07:43:55;2.45;;;1.63;;
64186;SDS011;50491;39.484;-8.540;2022-09-09T07:45:58;6.97;;;1.15;;
64186;SDS011;50491;39.484;-8.540;2022-09-09T07:48:17;1.85;;;0.93;;
64186;SDS011;50491;39.484;-8.540;2022-09-09T07:53:22;2.80;;;0.98;;
64186;SDS011;50491;39.484;-8.540;2022-09-09T07:58:22;1.30;;;0.70;;
64186;SDS011;50491;39.484;-8.540;2022-09-09T08:00:23;1.10;;;0.80;;
64186;SDS011;50491;39.484;-8.540;2022-09-09T08:04:29;11.48;;;1.20;;
64186;SDS011;50491;39.484;-8.540;2022-09-09T08:06:32;4.03;;;0.90;;
64186;SDS011;50491;39.484;-8.540;2022-09-09T08:08:39;0.68;;;0.68;;
64186;SDS011;50491;39.484;-8.540;2022-09-09T08:11:09;4.88;;;1.20;;
64186;SDS011;50491;39.484;-8.540;2022-09-09T08:13:12;6.75;;;2.40;;
64186;SDS011;50491;39.484;-8.540;2022-09-09T08:15:14;8.90;;;1.67;;
64186;SDS011;50491;39.484;-8.540;2022-09-09T08:17:14;3.75;;;0.88;;
64186;SDS011;50491;39.484;-8.540;2022-09-09T08:22:01;2.22;;;1.00;;
64186;SDS011;50491;39.484;-8.540;2022-09-09T08:24:04;1.52;;;0.85;;
64186;SDS011;50491;39.484;-8.540;2022-09-09T08:26:06;0.80;;;0.80;;
64186;SDS011;50491;39.484;-8.540;2022-09-09T08:28:11;3.13;;;1.35;;
64186;SDS011;50491;39.484;-8.540;2022-09-09T08:32:49;0.65;;;0.50;;
64186;SDS011;50491;39.484;-8.540;2022-09-09T08:34:51;5.63;;;1.38;;
64186;SDS011;50491;39.484;-8.540;2022-09-09T08:36:56;3.15;;;1.17;;
64186;SDS011;50491;39.484;-8.540;2022-09-09T08:39:03;2.92;;;1.00;;
64186;SDS011;50491;39.484;-8.540;2022-09-09T08:44:10;2.28;;;1.17;;
64186;SDS011;50491;39.484;-8.540;2022-09-09T08:51:31;0.95;;;0.70;;
64186;SDS011;50491;39.484;-8.540;2022-09-09T08:53:38;1.33;;;0.88;;
64186;SDS011;50491;39.484;-8.540;2022-09-09T08:58:02;0.90;;;0.77;;
64186;SDS011;50491;39.484;-8.540;2022-09-09T09:00:31;1.13;;;0.65;;
64186;SDS011;50491;39.484;-8.540;2022-09-09T09:09:53;0.80;;;0.40;;
64186;SDS011;50491;39.484;-8.540;2022-09-09T09:12:00;1.00;;;0.70;;
64186;SDS011;50491;39.484;-8.540;2022-09-09T09:14:14;1.02;;;0.70;;
64186;SDS011;50491;39.484;-8.540;2022-09-09T09:18:33;1.85;;;0.68;;
64186;SDS011;50491;39.484;-8.540;2022-09-09T09:21:02;2.00;;;0.85;;
64186;SDS011;50491;39.484;-8.540;2022-09-09T09:23:09;1.17;;;0.70;;
64186;SDS011;50491;39.484;-8.540;2022-09-09T09:25:20;0.63;;;0.50;;
64186;SDS011;50491;39.484;-8.540;2022-09-09T09:27:30;2.30;;;1.08;;
64186;SDS011;50491;39.484;-8.540;2022-09-09T09:29:31;3.08;;;0.90;;
64186;SDS011;50491;39.484;-8.540;2022-09-09T09:31:32;0.55;;;0.55;;
64186;SDS011;50491;39.484;-8.540;2022-09-09T09:33:52;0.52;;;0.32;;
64186;SDS011;50491;39.484;-8.540;2022-09-09T09:35:57;0.65;;;0.65;;
64186;SDS011;50491;39.484;-8.540;2022-09-09T09:38:00;2.25;;;0.70;;
64186;SDS011;50491;39.484;-8.540;2022-09-09T09:42:15;1.10;;;0.90;;
64186;SDS011;50491;39.484;-8.540;2022-09-09T09:44:25;1.48;;;0.70;;
64186;SDS011;50491;39.484;-8.540;2022-09-09T09:46:34;1.08;;;0.60;;
64186;SDS011;50491;39.484;-8.540;2022-09-09T09:48:42;1.10;;;0.75;;
64186;SDS011;50491;39.484;-8.540;2022-09-09T09:50:51;0.73;;;0.68;;
64186;SDS011;50491;39.484;-8.540;2022-09-09T09:52:53;3.53;;;0.60;;
64186;SDS011;50491;39.484;-8.540;2022-09-09T09:55:03;0.80;;;0.68;;
64186;SDS011;50491;39.484;-8.540;2022-09-09T09:57:14;1.35;;;0.80;;
64186;SDS011;50491;39.484;-8.540;2022-09-09T09:59:42;1.23;;;0.95;;
64186;SDS011;50491;39.484;-8.540;2022-09-09T10:02:13;3.38;;;0.90;;
64186;SDS011;50491;39.484;-8.540;2022-09-09T10:06:36;1.10;;;0.90;;
64186;SDS011;50491;39.484;-8.540;2022-09-09T10:08:57;1.75;;;0.93;;
64186;SDS011;50491;39.484;-8.540;2022-09-09T10:13:42;2.10;;;0.80;;
64186;SDS011;50491;39.484;-8.540;2022-09-09T10:22:51;1.38;;;0.80;;
64186;SDS011;50491;39.484;-8.540;2022-09-09T10:29:49;2.57;;;1.00;;
64186;SDS011;50491;39.484;-8.540;2022-09-09T10:40:16;3.47;;;1.50;;
64186;SDS011;50491;39.484;-8.540;2022-09-09T10:42:21;1.75;;;1.25;;
64186;SDS011;50491;39.484;-8.540;2022-09-09T10:44:38;3.47;;;1.30;;
64186;SDS011;50491;39.484;-8.540;2022-09-09T10:57:00;1.10;;;0.95;;
64186;SDS011;50491;39.484;-8.540;2022-09-09T10:59:17;1.27;;;1.10;;
64186;SDS011;50491;39.484;-8.540;2022-09-09T11:06:19;2.33;;;0.90;;
64186;SDS011;50491;39.484;-8.540;2022-09-09T11:08:22;2.75;;;1.00;;
64186;SDS011;50491;39.484;-8.540;2022-09-09T11:12:40;1.00;;;0.80;;
64186;SDS011;50491;39.484;-8.540;2022-09-09T11:15:20;0.98;;;0.77;;
64186;SDS011;50491;39.484;-8.540;2022-09-09T11:17:31;2.17;;;0.70;;
64186;SDS011;50491;39.484;-8.540;2022-09-09T11:19:42;0.88;;;0.82;;
64186;SDS011;50491;39.484;-8.540;2022-09-09T11:21:48;1.33;;;0.90;;
64186;SDS011;50491;39.484;-8.540;2022-09-09T11:23:51;1.58;;;1.23;;
64186;SDS011;50491;39.484;-8.540;2022-09-09T11:26:16;2.83;;;0.82;;
64186;SDS011;50491;39.484;-8.540;2022-09-09T11:36:38;3.35;;;1.20;;
64186;SDS011;50491;39.484;-8.540;2022-09-09T11:38:45;2.10;;;1.08;;
64186;SDS011;50491;39.484;-8.540;2022-09-09T11:40:58;1.70;;;0.93;;
64186;SDS011;50491;39.484;-8.540;2022-09-09T11:43:01;2.05;;;1.25;;
64186;SDS011;50491;39.484;-8.540;2022-09-09T11:45:09;1.63;;;0.90;;
64186;SDS011;50491;39.484;-8.540;2022-09-09T11:47:30;1.40;;;0.93;;
64186;SDS011;50491;39.484;-8.540;2022-09-09T11:49:50;1.30;;;1.00;;
64186;SDS011;50491;39.484;-8.540;2022-09-09T11:51:50;2.55;;;1.02;;
64186;SDS011;50491;39.484;-8.540;2022-09-09T11:56:00;1.70;;;0.80;;
64186;SDS011;50491;39.484;-8.540;2022-09-09T12:00:49;1.25;;;0.98;;
64186;SDS011;50491;39.484;-8.540;2022-09-09T12:02:50;1.48;;;0.93;;
64186;SDS011;50491;39.484;-8.540;2022-09-09T12:05:12;2.38;;;0.90;;
64186;SDS011;50491;39.484;-8.540;2022-09-09T12:07:34;1.77;;;1.17;;
64186;SDS011;50491;39.484;-8.540;2022-09-09T12:09:47;1.13;;;0.90;;
64186;SDS011;50491;39.484;-8.540;2022-09-09T12:11:49;2.30;;;1.30;;
64186;SDS011;50491;39.484;-8.540;2022-09-09T12:13:53;1.33;;;0.95;;
64186;SDS011;50491;39.484;-8.540;2022-09-09T12:16:27;1.98;;;0.80;;
64186;SDS011;50491;39.484;-8.540;2022-09-09T12:18:37;1.38;;;1.08;;
64186;SDS011;50491;39.484;-8.540;2022-09-09T12:20:39;1.05;;;0.80;;
64186;SDS011;50491;39.484;-8.540;2022-09-09T12:25:37;1.00;;;0.80;;
64186;SDS011;50491;39.484;-8.540;2022-09-09T12:28:22;0.70;;;0.65;;
64186;SDS011;50491;39.484;-8.540;2022-09-09T12:32:47;2.40;;;1.00;;
64186;SDS011;50491;39.484;-8.540;2022-09-09T12:41:53;1.40;;;1.10;;
64186;SDS011;50491;39.484;-8.540;2022-09-09T12:44:04;1.35;;;0.93;;
64186;SDS011;50491;39.484;-8.540;2022-09-09T12:46:11;1.27;;;0.82;;
64186;SDS011;50491;39.484;-8.540;2022-09-09T12:48:38;1.08;;;0.80;;
64186;SDS011;50491;39.484;-8.540;2022-09-09T12:50:46;1.50;;;0.90;;
64186;SDS011;50491;39.484;-8.540;2022-09-09T12:53:14;1.08;;;0.93;;
64186;SDS011;50491;39.484;-8.540;2022-09-09T12:55:21;1.50;;;1.20;;
64186;SDS011;50491;39.484;-8.540;2022-09-09T12:57:25;1.80;;;1.30;;
64186;SDS011;50491;39.484;-8.540;2022-09-09T12:59:44;1.08;;;0.98;;
64186;SDS011;50491;39.484;-8.540;2022-09-09T13:01:45;0.73;;;0.73;;
64186;SDS011;50491;39.484;-8.540;2022-09-09T13:03:55;1.90;;;0.95;;
64186;SDS011;50491;39.484;-8.540;2022-09-09T13:06:33;2.15;;;1.23;;
64186;SDS011;50491;39.484;-8.540;2022-09-09T13:11:00;1.20;;;0.90;;
64186;SDS011;50491;39.484;-8.540;2022-09-09T13:13:03;2.42;;;0.77;;
64186;SDS011;50491;39.484;-8.540;2022-09-09T13:15:05;1.17;;;1.08;;
64186;SDS011;50491;39.484;-8.540;2022-09-09T13:17:31;2.03;;;1.10;;
64186;SDS011;50491;39.484;-8.540;2022-09-09T13:19:51;1.13;;;1.02;;
64186;SDS011;50491;39.484;-8.540;2022-09-09T13:21:53;1.23;;;0.98;;
64186;SDS011;50491;39.484;-8.540;2022-09-09T13:24:29;1.73;;;1.27;;
64186;SDS011;50491;39.484;-8.540;2022-09-09T13:26:31;1.75;;;1.20;;
64186;SDS011;50491;39.484;-8.540;2022-09-09T13:28:32;1.00;;;0.90;;
64186;SDS011;50491;39.484;-8.540;2022-09-09T13:30:34;1.98;;;1.20;;
64186;SDS011;50491;39.484;-8.540;2022-09-09T13:32:40;1.65;;;0.85;;
64186;SDS011;50491;39.484;-8.540;2022-09-09T13:34:49;1.30;;;0.90;;
64186;SDS011;50491;39.484;-8.540;2022-09-09T13:37:40;3.28;;;1.30;;
64186;SDS011;50491;39.484;-8.540;2022-09-09T13:39:50;1.90;;;0.90;;
64186;SDS011;50491;39.484;-8.540;2022-09-09T13:41:53;1.42;;;0.82;;
64186;SDS011;50491;39.484;-8.540;2022-09-09T13:44:28;0.98;;;0.88;;
64186;SDS011;50491;39.484;-8.540;2022-09-09T13:47:03;4.38;;;1.10;;
64186;SDS011;50491;39.484;-8.540;2022-09-09T13:53:39;1.70;;;1.00;;
64186;SDS011;50491;39.484;-8.540;2022-09-09T13:55:40;1.08;;;0.88;;
64186;SDS011;50491;39.484;-8.540;2022-09-09T13:58:14;1.00;;;0.90;;
64186;SDS011;50491;39.484;-8.540;2022-09-09T14:00:18;1.50;;;0.90;;
64186;SDS011;50491;39.484;-8.540;2022-09-09T14:02:19;2.22;;;0.90;;
64186;SDS011;50491;39.484;-8.540;2022-09-09T14:04:21;1.23;;;0.80;;
64186;SDS011;50491;39.484;-8.540;2022-09-09T14:06:22;1.17;;;0.80;;
64186;SDS011;50491;39.484;-8.540;2022-09-09T14:08:24;1.08;;;0.98;;
64186;SDS011;50491;39.484;-8.540;2022-09-09T14:10:51;0.90;;;0.77;;
64186;SDS011;50491;39.484;-8.540;2022-09-09T14:13:01;1.17;;;0.88;;
64186;SDS011;50491;39.484;-8.540;2022-09-09T14:15:03;1.27;;;0.82;;
64186;SDS011;50491;39.484;-8.540;2022-09-09T14:17:04;2.08;;;0.90;;
64186;SDS011;50491;39.484;-8.540;2022-09-09T14:19:05;1.52;;;0.90;;
64186;SDS011;50491;39.484;-8.540;2022-09-09T14:21:26;2.38;;;0.82;;
64186;SDS011;50491;39.484;-8.540;2022-09-09T14:23:27;0.70;;;0.70;;
64186;SDS011;50491;39.484;-8.540;2022-09-09T14:25:48;0.90;;;0.77;;
64186;SDS011;50491;39.484;-8.540;2022-09-09T14:27:49;4.78;;;0.98;;
64186;SDS011;50491;39.484;-8.540;2022-09-09T14:30:10;1.73;;;0.90;;
64186;SDS011;50491;39.484;-8.540;2022-09-09T14:32:35;1.77;;;0.90;;
64186;SDS011;50491;39.484;-8.540;2022-09-09T14:34:54;1.15;;;0.70;;
64186;SDS011;50491;39.484;-8.540;2022-09-09T14:36:55;1.30;;;0.90;;
64186;SDS011;50491;39.484;-8.540;2022-09-09T14:38:55;1.13;;;0.80;;
64186;SDS011;50491;39.484;-8.540;2022-09-09T14:41:22;2.38;;;0.68;;
64186;SDS011;50491;39.484;-8.540;2022-09-09T14:43:23;1.73;;;0.60;;
64186;SDS011;50491;39.484;-8.540;2022-09-09T14:45:23;1.45;;;0.70;;
64186;SDS011;50491;39.484;-8.540;2022-09-09T14:47:25;1.77;;;0.75;;
64186;SDS011;50491;39.484;-8.540;2022-09-09T14:49:26;2.45;;;0.93;;
64186;SDS011;50491;39.484;-8.540;2022-09-09T14:51:27;0.90;;;0.70;;
64186;SDS011;50491;39.484;-8.540;2022-09-09T14:53:28;0.68;;;0.68;;
64186;SDS011;50491;39.484;-8.540;2022-09-09T14:55:29;1.17;;;0.90;;
64186;SDS011;50491;39.484;-8.540;2022-09-09T14:57:30;0.68;;;0.60;;
64186;SDS011;50491;39.484;-8.540;2022-09-09T14:59:31;1.60;;;0.75;;
64186;SDS011;50491;39.484;-8.540;2022-09-09T15:03:51;0.60;;;0.50;;
64186;SDS011;50491;39.484;-8.540;2022-09-09T15:05:57;0.50;;;0.43;;
64186;SDS011;50491;39.484;-8.540;2022-09-09T15:07:58;0.50;;;0.30;;
64186;SDS011;50491;39.484;-8.540;2022-09-09T15:09:59;1.27;;;0.47;;
64186;SDS011;50491;39.484;-8.540;2022-09-09T15:11:59;1.35;;;0.50;;
64186;SDS011;50491;39.484;-8.540;2022-09-09T15:14:01;0.65;;;0.50;;
64186;SDS011;50491;39.484;-8.540;2022-09-09T15:18:37;1.38;;;0.80;;
64186;SDS011;50491;39.484;-8.540;2022-09-09T15:20:46;1.60;;;0.88;;
64186;SDS011;50491;39.484;-8.540;2022-09-09T15:22:47;0.63;;;0.40;;
64186;SDS011;50491;39.484;-8.540;2022-09-09T15:24:48;0.77;;;0.45;;
64186;SDS011;50491;39.484;-8.540;2022-09-09T15:27:15;0.70;;;0.60;;
64186;SDS011;50491;39.484;-8.540;2022-09-09T15:29:15;1.85;;;0.40;;
64186;SDS011;50491;39.484;-8.540;2022-09-09T15:33:20;0.93;;;0.55;;
64186;SDS011;50491;39.484;-8.540;2022-09-09T15:35:21;1.77;;;0.80;;
64186;SDS011;50491;39.484;-8.540;2022-09-09T15:37:22;0.95;;;0.82;;
64186;SDS011;50491;39.484;-8.540;2022-09-09T15:39:47;1.60;;;0.65;;
64186;SDS011;50491;39.484;-8.540;2022-09-09T15:42:07;0.93;;;0.70;;
64186;SDS011;50491;39.484;-8.540;2022-09-09T15:44:27;0.90;;;0.65;;
64186;SDS011;50491;39.484;-8.540;2022-09-09T15:51:09;2.35;;;1.88;;
64186;SDS011;50491;39.484;-8.540;2022-09-09T15:53:10;2.15;;;1.17;;
64186;SDS011;50491;39.484;-8.540;2022-09-09T15:55:37;4.30;;;0.90;;
64186;SDS011;50491;39.484;-8.540;2022-09-09T15:57:37;1.65;;;1.00;;
64186;SDS011;50491;39.484;-8.540;2022-09-09T15:59:56;1.45;;;0.93;;
64186;SDS011;50491;39.484;-8.540;2022-09-09T16:01:57;1.27;;;0.93;;
64186;SDS011;50491;39.484;-8.540;2022-09-09T16:04:00;1.42;;;1.08;;
64186;SDS011;50491;39.484;-8.540;2022-09-09T16:06:01;2.45;;;0.98;;
64186;SDS011;50491;39.484;-8.540;2022-09-09T16:08:02;1.83;;;1.38;;
64186;SDS011;50491;39.484;-8.540;2022-09-09T16:10:04;6.00;;;1.60;;
64186;SDS011;50491;39.484;-8.540;2022-09-09T16:12:31;3.40;;;1.50;;
64186;SDS011;50491;39.484;-8.540;2022-09-09T16:14:33;2.05;;;1.10;;
64186;SDS011;50491;39.484;-8.540;2022-09-09T16:16:35;2.10;;;1.13;;
64186;SDS011;50491;39.484;-8.540;2022-09-09T16:18:44;1.73;;;0.88;;
64186;SDS011;50491;39.484;-8.540;2022-09-09T16:20:55;1.80;;;1.10;;
64186;SDS011;50491;39.484;-8.540;2022-09-09T16:22:56;2.63;;;0.90;;
64186;SDS011;50491;39.484;-8.540;2022-09-09T16:25:16;1.88;;;1.00;;
64186;SDS011;50491;39.484;-8.540;2022-09-09T16:27:37;2.05;;;0.80;;
64186;SDS011;50491;39.484;-8.540;2022-09-09T16:36:54;2.40;;;0.60;;
64186;SDS011;50491;39.484;-8.540;2022-09-09T16:39:15;1.27;;;0.73;;
64186;SDS011;50491;39.484;-8.540;2022-09-09T16:41:36;0.75;;;0.47;;
64186;SDS011;50491;39.484;-8.540;2022-09-09T16:43:38;2.50;;;0.50;;
64186;SDS011;50491;39.484;-8.540;2022-09-09T16:45:43;1.38;;;0.70;;
64186;SDS011;50491;39.484;-8.540;2022-09-09T16:48:09;1.33;;;0.57;;
64186;SDS011;50491;39.484;-8.540;2022-09-09T16:56:07;0.50;;;0.38;;
64186;SDS011;50491;39.484;-8.540;2022-09-09T17:03:31;7.22;;;1.00;;
64186;SDS011;50491;39.484;-8.540;2022-09-09T17:06:15;1.65;;;0.80;;
64186;SDS011;50491;39.484;-8.540;2022-09-09T17:08:16;0.82;;;0.68;;
64186;SDS011;50491;39.484;-8.540;2022-09-09T17:10:16;0.73;;;0.45;;
64186;SDS011;50491;39.484;-8.540;2022-09-09T17:12:17;0.90;;;0.40;;
64186;SDS011;50491;39.484;-8.540;2022-09-09T17:14:18;2.10;;;0.52;;
64186;SDS011;50491;39.484;-8.540;2022-09-09T17:18:58;0.70;;;0.47;;
64186;SDS011;50491;39.484;-8.540;2022-09-09T17:21:02;0.32;;;0.32;;
64186;SDS011;50491;39.484;-8.540;2022-09-09T17:23:07;0.50;;;0.50;;
64186;SDS011;50491;39.484;-8.540;2022-09-09T17:28:00;2.20;;;0.40;;
64186;SDS011;50491;39.484;-8.540;2022-09-09T17:37:38;0.75;;;0.45;;
64186;SDS011;50491;39.484;-8.540;2022-09-09T17:42:56;0.60;;;0.35;;
64186;SDS011;50491;39.484;-8.540;2022-09-09T17:48:13;0.60;;;0.22;;
64186;SDS011;50491;39.484;-8.540;2022-09-09T17:50:13;0.30;;;0.30;;
64186;SDS011;50491;39.484;-8.540;2022-09-09T17:54:51;1.02;;;0.30;;
64186;SDS011;50491;39.484;-8.540;2022-09-09T17:57:12;0.20;;;0.15;;
64186;SDS011;50491;39.484;-8.540;2022-09-09T18:06:51;2.08;;;0.40;;
64186;SDS011;50491;39.484;-8.540;2022-09-09T18:12:19;0.63;;;0.30;;
64186;SDS011;50491;39.484;-8.540;2022-09-09T18:14:45;0.35;;;0.30;;
64186;SDS011;50491;39.484;-8.540;2022-09-09T18:16:47;0.10;;;0.10;;
64186;SDS011;50491;39.484;-8.540;2022-09-09T18:18:48;2.45;;;0.43;;
64186;SDS011;50491;39.484;-8.540;2022-09-09T18:27:26;1.00;;;0.30;;
64186;SDS011;50491;39.484;-8.540;2022-09-09T18:30:18;0.15;;;0.15;;
64186;SDS011;50491;39.484;-8.540;2022-09-09T18:35:16;0.35;;;0.25;;
64186;SDS011;50491;39.484;-8.540;2022-09-09T18:37:41;0.25;;;0.25;;